Nortonville, Illinois
Current Conditions -  °F | °C
As of 7:15 PM on Tuesday 27 Jan 2015 (Local Time) from KIJX Reporting Station
Overcast Overcast  
Wind Chill: 24°   Ceiling: 1700
Heat Index: 33°   Visibility: 7mi
Dew Point: 29°   Wind: 10mph
Humidity: 86%   Direction: 80°E
Pressure: 30.23"   Gusts: NA
Location:  39.5633°N, 90.2043°W
Report Text: KIJX 280115Z AUTO 08009KT 7SM OVC017 00/M02 A3023 RMK AO2 T00031018
Loading
Personal Weather Stations






























Interactive Weather Map New forecast layout! Learn more

10-Day Weather Forecast

Advertisements
Track Severe Weather on mobile